createdAt,value
2018-07-11T00:01:19.460Z,8.30
2018-07-11T00:03:51.995Z,8.60
2018-07-11T00:06:21.939Z,7.80
2018-07-11T00:08:50.396Z,12.60
2018-07-11T00:11:18.896Z,10.03
2018-07-11T00:13:47.879Z,9.03
2018-07-11T00:16:16.899Z,9.70
2018-07-11T00:18:45.023Z,8.80
2018-07-11T00:21:13.539Z,9.10
2018-07-11T00:23:42.067Z,8.50
2018-07-11T00:26:11.233Z,9.17
2018-07-11T00:28:39.365Z,9.10
2018-07-11T00:31:07.890Z,8.30
2018-07-11T00:33:36.039Z,8.43
2018-07-11T00:36:04.550Z,7.57
2018-07-11T00:38:33.508Z,7.33
2018-07-11T00:41:02.756Z,7.73
2018-07-11T00:43:33.946Z,7.13
2018-07-11T00:46:03.098Z,8.47
2018-07-11T00:48:31.899Z,10.47
2018-07-11T00:51:01.311Z,9.60
2018-07-11T00:53:30.724Z,7.83
2018-07-11T00:55:59.868Z,7.40
2018-07-11T00:58:36.163Z,8.53
2018-07-11T01:01:12.135Z,9.40
2018-07-11T01:03:43.347Z,7.27
2018-07-11T01:06:11.479Z,6.87
2018-07-11T01:08:41.720Z,6.40
2018-07-11T01:11:15.519Z,6.83
2018-07-11T01:13:45.359Z,19.33
2018-07-11T01:16:14.350Z,7.60
2018-07-11T01:18:45.836Z,7.23
2018-07-11T01:21:14.251Z,6.93
2018-07-11T01:23:43.172Z,13.17
2018-07-11T01:26:11.947Z,6.30
2018-07-11T01:28:40.391Z,6.57
2018-07-11T01:31:08.818Z,6.60
2018-07-11T01:33:37.255Z,6.67
2018-07-11T01:36:05.735Z,6.13
2018-07-11T01:38:34.220Z,5.10
2018-07-11T01:41:02.743Z,6.80
2018-07-11T01:43:31.264Z,6.50
2018-07-11T01:45:59.744Z,6.50
2018-07-11T01:48:28.256Z,6.13
2018-07-11T01:50:56.743Z,7.13
2018-07-11T01:53:25.280Z,6.20
2018-07-11T01:55:53.755Z,6.30
2018-07-11T01:58:22.271Z,6.60
2018-07-11T02:00:50.772Z,7.57
2018-07-11T02:03:19.291Z,7.77
2018-07-11T02:05:47.418Z,7.90
2018-07-11T02:08:15.919Z,7.97
2018-07-11T02:10:44.447Z,7.17
2018-07-11T02:13:13.368Z,9.20
2018-07-11T02:15:42.039Z,8.03
2018-07-11T02:18:10.571Z,9.57
2018-07-11T02:20:39.084Z,8.13
2018-07-11T02:23:07.607Z,7.63
2018-07-11T02:25:36.213Z,7.33
2018-07-11T02:28:04.820Z,7.80
2018-07-11T02:30:33.405Z,7.77
2018-07-11T02:33:01.973Z,8.23
2018-07-11T02:35:30.581Z,7.50
2018-07-11T02:37:59.105Z,8.40
2018-07-11T02:40:27.641Z,11.60
2018-07-11T02:42:55.783Z,14.30
2018-07-11T02:45:24.357Z,9.40
2018-07-11T02:47:52.913Z,9.87
2018-07-11T02:50:21.510Z,8.97
2018-07-11T02:52:50.012Z,11.47
2018-07-11T02:55:18.561Z,10.43
2018-07-11T02:57:47.072Z,8.70
2018-07-11T03:00:15.551Z,9.03
2018-07-11T03:02:44.088Z,8.40
2018-07-11T03:05:12.612Z,9.20
2018-07-11T03:07:41.137Z,8.50
2018-07-11T03:10:09.697Z,11.40
2018-07-11T03:12:38.168Z,14.17
2018-07-11T03:15:06.664Z,11.10
2018-07-11T03:17:35.176Z,8.67
2018-07-11T03:20:03.721Z,8.90
2018-07-11T03:22:32.198Z,10.10
2018-07-11T03:25:00.696Z,11.20
2018-07-11T03:27:29.177Z,10.60
2018-07-11T03:29:57.728Z,11.13
2018-07-11T03:32:26.285Z,10.57
2018-07-11T03:34:54.860Z,17.13
2018-07-11T03:37:23.010Z,13.10
2018-07-11T03:39:51.496Z,14.07
2018-07-11T03:42:19.976Z,11.80
2018-07-11T03:44:48.556Z,13.33
2018-07-11T03:47:17.056Z,12.20
2018-07-11T03:49:45.256Z,14.20
2018-07-11T03:52:13.781Z,15.27
2018-07-11T03:54:42.284Z,16.33
2018-07-11T03:57:10.776Z,13.83
2018-07-11T03:59:38.936Z,14.40
2018-07-11T04:02:07.795Z,15.00
2018-07-11T04:04:36.293Z,14.13
2018-07-11T04:07:04.796Z,13.97
2018-07-11T04:09:33.276Z,13.90
2018-07-11T04:12:01.745Z,17.93
2018-07-11T04:14:30.260Z,21.23
2018-07-11T04:16:58.739Z,16.40
2018-07-11T04:19:27.228Z,18.73
2018-07-11T04:21:55.721Z,15.37
2018-07-11T04:24:24.235Z,16.77
2018-07-11T04:26:52.804Z,18.30
2018-07-11T04:29:21.335Z,17.67
2018-07-11T04:31:49.873Z,19.60
2018-07-11T04:34:18.372Z,19.10
2018-07-11T04:36:46.956Z,20.80
2018-07-11T04:39:15.603Z,21.90
2018-07-11T04:41:44.301Z,18.67
2018-07-11T04:44:12.869Z,17.83
2018-07-11T04:46:41.414Z,16.43
2018-07-11T04:49:09.976Z,17.87
2018-07-11T04:51:38.569Z,18.33
2018-07-11T04:54:07.048Z,18.90
2018-07-11T04:56:35.540Z,15.63
2018-07-11T04:59:04.019Z,19.30
2018-07-11T05:01:32.539Z,15.00
2018-07-11T05:04:01.100Z,17.70
2018-07-11T05:06:29.585Z,14.70
2018-07-11T05:08:58.064Z,17.33
2018-07-11T05:11:26.557Z,17.00
2018-07-11T05:13:55.014Z,16.00
2018-07-11T05:16:23.497Z,21.27
2018-07-11T05:18:51.969Z,16.23
2018-07-11T05:21:20.459Z,15.37
2018-07-11T05:23:48.944Z,21.57
2018-07-11T05:26:17.457Z,13.97
2018-07-11T05:28:45.604Z,14.20
2018-07-11T05:31:14.099Z,15.23
2018-07-11T05:33:42.584Z,13.37
2018-07-11T05:36:11.174Z,13.00
2018-07-11T05:38:39.624Z,32.27
2018-07-11T05:41:08.117Z,15.23
2018-07-11T05:43:36.633Z,13.60
2018-07-11T05:46:05.117Z,16.70
2018-07-11T05:48:33.617Z,20.23
2018-07-11T05:51:02.272Z,12.87
2018-07-11T05:53:30.769Z,14.00
2018-07-11T05:55:59.245Z,11.43
2018-07-11T05:58:27.411Z,11.90
2018-07-11T06:00:55.880Z,14.77
2018-07-11T06:03:24.404Z,14.33
2018-07-11T06:05:52.876Z,12.57
2018-07-11T06:08:21.388Z,13.67
2018-07-11T06:10:50.108Z,10.27
2018-07-11T06:13:18.657Z,10.83
2018-07-11T06:15:47.696Z,10.20
2018-07-11T06:18:15.888Z,12.73
2018-07-11T06:20:44.352Z,13.80
2018-07-11T06:23:12.513Z,12.63
2018-07-11T06:25:40.984Z,9.97
2018-07-11T06:28:09.547Z,10.40
2018-07-11T06:30:37.987Z,15.90
2018-07-11T06:33:06.504Z,13.40
2018-07-11T06:35:35.174Z,10.30
2018-07-11T06:38:04.469Z,11.97
2018-07-11T06:40:32.960Z,9.80
2018-07-11T06:43:01.477Z,9.10
2018-07-11T06:45:29.957Z,8.63
2018-07-11T06:47:58.505Z,10.43
2018-07-11T06:50:26.972Z,9.77
2018-07-11T06:52:55.436Z,13.23
2018-07-11T06:55:23.948Z,10.30
2018-07-11T06:57:52.446Z,10.10
2018-07-11T07:00:20.940Z,8.00
2018-07-11T07:02:49.568Z,7.20
2018-07-11T07:05:18.064Z,7.57
2018-07-11T07:07:46.528Z,7.63
2018-07-11T07:10:14.683Z,8.90
2018-07-11T07:12:43.152Z,7.97
2018-07-11T07:15:11.644Z,8.27
2018-07-11T07:17:40.104Z,6.97
2018-07-11T07:20:08.633Z,7.60
2018-07-11T07:22:36.790Z,7.47
2018-07-11T07:25:05.282Z,8.73
2018-07-11T07:27:33.762Z,9.53
2018-07-11T07:30:01.927Z,7.43
2018-07-11T07:32:30.396Z,8.67
2018-07-11T07:34:58.915Z,8.87
2018-07-11T07:37:27.408Z,9.43
2018-07-11T07:39:55.876Z,10.23
2018-07-11T07:42:24.402Z,12.60
2018-07-11T07:44:53.180Z,11.80
2018-07-11T07:47:27.030Z,12.30
2018-07-11T07:49:55.591Z,13.40
2018-07-11T07:52:24.164Z,12.50
2018-07-11T07:54:52.712Z,12.57
2018-07-11T07:57:21.229Z,13.63
2018-07-11T07:59:49.775Z,11.97
2018-07-11T08:02:19.710Z,11.23
2018-07-11T08:04:48.773Z,12.27
2018-07-11T08:07:17.324Z,14.30
2018-07-11T08:09:45.796Z,14.43
2018-07-11T08:12:14.312Z,8.70
2018-07-11T08:14:42.447Z,9.23
2018-07-11T08:17:10.944Z,9.63
2018-07-11T08:19:39.657Z,11.73
2018-07-11T08:22:13.511Z,9.50
2018-07-11T08:24:53.364Z,9.23
2018-07-11T08:29:38.081Z,10.67
2018-07-11T08:34:20.920Z,8.83
2018-07-11T08:37:03.296Z,10.40
2018-07-11T08:39:41.969Z,9.93
2018-07-11T08:43:25.248Z,11.83
2018-07-11T08:48:11.400Z,11.77
2018-07-11T08:51:04.036Z,11.50
2018-07-11T08:53:48.196Z,11.57
2018-07-11T08:57:24.899Z,15.80
2018-07-11T09:00:40.037Z,11.90
2018-07-11T09:03:36.320Z,11.07
2018-07-11T09:06:51.532Z,11.10
2018-07-11T09:09:35.096Z,11.00
2018-07-11T09:12:08.604Z,9.23
2018-07-11T09:14:46.555Z,9.43
2018-07-11T09:19:33.273Z,8.77
2018-07-11T09:22:19.196Z,8.80
2018-07-11T09:24:48.851Z,10.83
2018-07-11T09:27:17.337Z,7.17
2018-07-11T09:29:46.628Z,7.10
2018-07-11T09:32:15.496Z,6.37
2018-07-11T09:34:44.124Z,4.50
2018-07-11T09:37:12.613Z,5.27
2018-07-11T09:39:41.585Z,4.70
2018-07-11T09:42:10.052Z,5.20
2018-07-11T09:44:38.628Z,5.43
2018-07-11T09:47:12.271Z,5.67
2018-07-11T09:49:40.837Z,6.67
2018-07-11T09:52:09.370Z,6.00
2018-07-11T09:54:37.905Z,5.70
2018-07-11T09:57:06.452Z,3.90
2018-07-11T09:59:35.029Z,2.70
2018-07-11T10:02:03.536Z,2.70
2018-07-11T10:04:32.552Z,2.07
2018-07-11T10:07:01.145Z,1.90
2018-07-11T10:09:29.696Z,2.17
2018-07-11T10:11:58.211Z,2.40
2018-07-11T10:14:26.704Z,2.70
2018-07-11T10:16:55.212Z,2.80
2018-07-11T10:19:23.695Z,2.87
2018-07-11T10:21:52.201Z,2.80
2018-07-11T10:24:20.773Z,3.53
2018-07-11T10:26:49.241Z,3.03
2018-07-11T10:29:17.787Z,6.93
2018-07-11T10:31:46.300Z,3.17
2018-07-11T10:34:14.841Z,2.30
2018-07-11T10:36:43.389Z,3.10
2018-07-11T10:39:11.622Z,2.87
2018-07-11T10:41:40.017Z,3.23
2018-07-11T10:44:08.499Z,3.10
2018-07-11T10:46:37.020Z,3.17
2018-07-11T10:49:05.537Z,3.67
2018-07-11T10:51:34.128Z,3.50
2018-07-11T10:54:02.668Z,3.53
2018-07-11T10:56:30.826Z,4.87
2018-07-11T10:58:59.321Z,4.10
2018-07-11T11:01:27.900Z,3.80
2018-07-11T11:03:56.420Z,3.33
2018-07-11T11:06:24.953Z,3.30
2018-07-11T11:08:53.440Z,4.40
2018-07-11T11:11:21.945Z,3.23
2018-07-11T11:13:50.408Z,2.73
2018-07-11T11:16:18.925Z,2.90
2018-07-11T11:18:47.404Z,13.87
2018-07-11T11:21:16.192Z,3.23
2018-07-11T11:23:44.645Z,3.00
2018-07-11T11:26:13.135Z,2.77
2018-07-11T11:28:41.613Z,3.07
2018-07-11T11:31:10.148Z,2.90
2018-07-11T11:33:38.624Z,2.70
2018-07-11T11:36:07.104Z,2.80
2018-07-11T11:38:35.600Z,2.97
2018-07-11T11:41:04.169Z,2.50
2018-07-11T11:43:32.681Z,2.20
2018-07-11T11:46:01.193Z,2.03
2018-07-11T11:48:29.665Z,1.80
2018-07-11T11:50:58.161Z,2.53
2018-07-11T11:53:26.700Z,2.30
2018-07-11T11:55:55.180Z,1.90
2018-07-11T11:58:23.696Z,1.80
2018-07-11T12:00:52.184Z,1.90
2018-07-11T12:03:20.660Z,1.90
2018-07-11T12:05:49.180Z,2.47
2018-07-11T12:08:17.704Z,1.93
2018-07-11T12:10:46.176Z,2.40
2018-07-11T12:13:14.664Z,1.90
2018-07-11T12:15:43.148Z,2.03
2018-07-11T12:18:11.648Z,2.50
2018-07-11T12:20:40.213Z,2.10
2018-07-11T12:23:08.732Z,1.80
2018-07-11T12:25:41.688Z,2.30
2018-07-11T12:28:10.236Z,2.20
2018-07-11T12:30:38.798Z,2.40
2018-07-11T12:33:07.324Z,2.97
2018-07-11T12:35:35.839Z,2.70
2018-07-11T12:38:04.360Z,2.27
2018-07-11T12:40:32.884Z,2.40
2018-07-11T12:43:01.457Z,2.70
2018-07-11T12:45:29.953Z,2.37
2018-07-11T12:48:03.891Z,2.33
2018-07-11T12:50:32.408Z,2.50
2018-07-11T12:53:00.997Z,2.53
2018-07-11T12:55:29.540Z,2.43
2018-07-11T12:57:58.135Z,2.80
2018-07-11T13:00:26.693Z,2.10
2018-07-11T13:02:54.910Z,2.40
2018-07-11T13:05:23.477Z,2.13
2018-07-11T13:07:52.033Z,4.03
2018-07-11T13:10:20.180Z,1.90
2018-07-11T13:12:48.692Z,2.50
2018-07-11T13:15:17.156Z,2.30
2018-07-11T13:17:45.976Z,1.83
2018-07-11T13:20:14.453Z,2.40
2018-07-11T13:22:42.632Z,2.00
2018-07-11T13:25:10.772Z,2.80
2018-07-11T13:27:39.267Z,2.10
2018-07-11T13:30:07.789Z,3.97
2018-07-11T13:32:36.272Z,2.57
2018-07-11T13:35:04.756Z,1.90
2018-07-11T13:37:33.268Z,3.30
2018-07-11T13:40:01.776Z,2.53
2018-07-11T13:42:30.284Z,2.80
2018-07-11T13:44:58.800Z,2.80
2018-07-11T13:47:28.076Z,3.03
2018-07-11T13:49:56.936Z,4.80
2018-07-11T13:52:25.507Z,3.00
2018-07-11T13:54:54.024Z,2.60
2018-07-11T13:57:22.904Z,2.20
2018-07-11T13:59:51.183Z,2.63
2018-07-11T14:02:19.371Z,2.07
2018-07-11T14:04:47.916Z,2.70
2018-07-11T14:07:16.461Z,2.23
2018-07-11T14:09:45.008Z,2.47
2018-07-11T14:12:13.655Z,3.87
2018-07-11T14:14:42.244Z,3.47
2018-07-11T14:17:10.788Z,2.53
2018-07-11T14:19:39.319Z,5.90
2018-07-11T14:22:07.828Z,3.20
2018-07-11T14:24:36.020Z,2.87
2018-07-11T14:27:04.545Z,2.37
2018-07-11T14:29:33.128Z,2.20
2018-07-11T14:32:01.888Z,2.60
2018-07-11T14:34:30.424Z,2.97
2018-07-11T14:36:58.968Z,3.10
2018-07-11T14:39:27.472Z,3.37
2018-07-11T14:41:56.395Z,3.93
2018-07-11T14:44:24.922Z,4.20
2018-07-11T14:46:53.477Z,7.70
2018-07-11T14:49:22.062Z,4.70
2018-07-11T14:51:50.623Z,5.10
2018-07-11T14:54:19.204Z,4.90
2018-07-11T14:56:47.380Z,3.90
2018-07-11T14:59:15.563Z,3.50
2018-07-11T15:01:44.030Z,3.80
2018-07-11T15:04:12.550Z,4.07
2018-07-11T15:06:41.075Z,4.77
2018-07-11T15:09:09.775Z,4.73
2018-07-11T15:11:38.045Z,4.13
2018-07-11T15:14:06.573Z,6.27
2018-07-11T15:16:35.134Z,4.20
2018-07-11T15:19:03.339Z,4.20
2018-07-11T15:21:31.901Z,3.90
2018-07-11T15:24:00.073Z,4.03
2018-07-11T15:26:28.239Z,3.53
2018-07-11T15:28:57.053Z,3.23
2018-07-11T15:31:25.623Z,4.17
2018-07-11T15:33:54.596Z,4.40
2018-07-11T15:36:23.164Z,4.40
2018-07-11T15:38:51.697Z,4.97
2018-07-11T15:41:20.241Z,4.47
2018-07-11T15:43:49.140Z,4.87
2018-07-11T15:46:17.656Z,4.67
2018-07-11T15:48:46.225Z,5.37
2018-07-11T15:51:14.781Z,3.87
2018-07-11T15:53:43.689Z,5.07
2018-07-11T15:56:12.264Z,3.90
2018-07-11T15:58:41.193Z,4.20
2018-07-11T16:01:11.188Z,3.40
2018-07-11T16:03:42.511Z,3.80
2018-07-11T16:06:11.056Z,4.00
2018-07-11T16:08:43.384Z,4.57
2018-07-11T16:11:11.969Z,5.07
2018-07-11T16:13:40.115Z,5.43
2018-07-11T16:16:08.600Z,4.57
2018-07-11T16:18:37.149Z,4.70
2018-07-11T16:21:06.416Z,4.80
2018-07-11T16:23:34.576Z,4.10
2018-07-11T16:26:02.787Z,4.80
2018-07-11T16:28:31.353Z,7.63
2018-07-11T16:30:59.848Z,11.37
2018-07-11T16:33:28.393Z,9.97
2018-07-11T16:35:56.952Z,5.30
2018-07-11T16:38:25.460Z,4.63
2018-07-11T16:40:54.996Z,4.67
2018-07-11T16:43:23.525Z,12.13
2018-07-11T16:45:52.788Z,6.30
2018-07-11T16:48:21.127Z,6.40
2018-07-11T16:50:49.686Z,6.40
2018-07-11T16:53:18.616Z,3.90
2018-07-11T16:55:46.776Z,4.63
2018-07-11T16:58:23.160Z,3.63
2018-07-11T17:00:52.860Z,3.93
2018-07-11T17:03:21.048Z,3.83
2018-07-11T17:05:54.196Z,4.53
2018-07-11T17:08:30.092Z,5.63
2018-07-11T17:11:29.736Z,3.37
2018-07-11T17:14:00.548Z,3.73
2018-07-11T17:16:40.192Z,3.60
2018-07-11T17:19:21.808Z,3.57
2018-07-11T17:21:50.392Z,3.77
2018-07-11T17:24:20.136Z,4.90
2018-07-11T17:26:49.796Z,3.50
2018-07-11T17:29:21.512Z,5.03
2018-07-11T17:31:51.980Z,4.53
2018-07-11T17:34:21.355Z,2.90
2018-07-11T17:36:49.527Z,3.70
2018-07-11T17:39:17.692Z,3.27
2018-07-11T17:41:46.908Z,3.60
2018-07-11T17:44:15.520Z,4.90
2018-07-11T17:46:45.529Z,5.30
2018-07-11T17:49:18.313Z,5.30
2018-07-11T17:52:18.798Z,4.47
2018-07-11T17:54:55.064Z,5.03
2018-07-11T17:57:25.660Z,3.90
2018-07-11T18:00:06.212Z,3.40
2018-07-11T18:02:42.765Z,4.43
2018-07-11T18:06:20.712Z,3.93
2018-07-11T18:08:57.227Z,4.30
2018-07-11T18:11:34.771Z,4.10
2018-07-11T18:14:03.358Z,4.40
2018-07-11T18:16:43.357Z,10.10
2018-07-11T18:19:53.796Z,4.40
2018-07-11T18:22:34.109Z,4.77
2018-07-11T18:25:18.685Z,5.03
2018-07-11T18:27:56.509Z,4.47
2018-07-11T18:31:05.156Z,5.07
2018-07-11T18:35:47.393Z,5.37
2018-07-11T18:38:26.704Z,7.63
2018-07-11T18:41:04.596Z,4.90
2018-07-11T18:43:44.605Z,4.77
2018-07-11T18:46:18.431Z,10.13
2018-07-11T18:48:58.436Z,10.33
2018-07-11T18:52:38.280Z,7.07
2018-07-11T18:55:23.684Z,5.10
2018-07-11T18:57:58.571Z,5.53
2018-07-11T19:01:51.379Z,5.23
2018-07-11T19:04:34.232Z,5.87
2018-07-11T19:07:11.325Z,5.33
2018-07-11T19:09:50.841Z,4.90
2018-07-11T19:12:29.412Z,8.77
2018-07-11T19:15:14.769Z,5.60
2018-07-11T19:19:54.529Z,5.90
2018-07-11T19:22:31.696Z,5.40
2018-07-11T19:25:05.525Z,4.67
2018-07-11T19:27:44.749Z,5.63
2018-07-11T19:30:17.228Z,5.87
2018-07-11T19:33:14.989Z,4.97
2018-07-11T19:35:50.304Z,5.03
2018-07-11T19:38:30.706Z,4.73
2018-07-11T19:41:14.477Z,5.00
2018-07-11T19:46:03.104Z,5.63
2018-07-11T19:48:35.732Z,5.50
2018-07-11T19:51:22.488Z,5.00
2018-07-11T19:55:01.452Z,5.47
2018-07-11T19:57:29.959Z,6.23
2018-07-11T19:59:58.556Z,6.93
2018-07-11T20:02:27.097Z,15.23
2018-07-11T20:04:55.672Z,33.17
2018-07-11T20:07:24.168Z,5.53
2018-07-11T20:09:52.728Z,7.37
2018-07-11T20:12:20.907Z,7.93
2018-07-11T20:14:49.172Z,6.20
2018-07-11T20:17:17.661Z,6.73
2018-07-11T20:19:46.168Z,6.03
2018-07-11T20:22:14.696Z,5.73
2018-07-11T20:24:43.224Z,6.23
2018-07-11T20:27:11.736Z,8.43
2018-07-11T20:29:40.275Z,6.73
2018-07-11T20:32:08.857Z,5.60
2018-07-11T20:34:37.364Z,6.50
2018-07-11T20:37:06.386Z,6.10
2018-07-11T20:39:34.936Z,6.83
2018-07-11T20:42:03.501Z,6.87
2018-07-11T20:44:31.996Z,6.83
2018-07-11T20:47:00.902Z,6.67
2018-07-11T20:49:33.968Z,6.70
2018-07-11T20:52:02.904Z,8.57
2018-07-11T20:54:31.392Z,6.57
2018-07-11T20:56:59.912Z,7.93
2018-07-11T20:59:39.708Z,8.33
2018-07-11T21:02:19.540Z,7.27
2018-07-11T21:05:13.415Z,10.20
2018-07-11T21:09:56.795Z,8.43
2018-07-11T21:15:18.645Z,8.37
2018-07-11T21:18:28.069Z,9.10
2018-07-11T21:20:56.552Z,8.07
2018-07-11T21:23:25.025Z,9.07
2018-07-11T21:25:53.488Z,9.83
2018-07-11T21:28:21.980Z,9.73
2018-07-11T21:30:50.450Z,9.57
2018-07-11T21:33:18.961Z,15.23
2018-07-11T21:35:47.464Z,8.97
2018-07-11T21:38:15.988Z,9.63
2018-07-11T21:40:44.518Z,9.13
2018-07-11T21:43:12.993Z,10.90
2018-07-11T21:45:41.496Z,11.20
2018-07-11T21:48:09.965Z,8.97
2018-07-11T21:50:38.472Z,9.73
2018-07-11T21:53:06.944Z,12.30
2018-07-11T21:55:35.412Z,10.50
2018-07-11T21:58:03.963Z,11.00
2018-07-11T22:00:36.514Z,10.20
2018-07-11T22:03:06.229Z,11.97
2018-07-11T22:05:35.500Z,14.83
2018-07-11T22:08:05.664Z,13.50
2018-07-11T22:10:34.613Z,13.40
2018-07-11T22:13:03.032Z,10.83
2018-07-11T22:15:31.617Z,12.17
2018-07-11T22:18:11.313Z,12.97
2018-07-11T22:20:38.647Z,10.87
2018-07-11T22:23:06.132Z,11.07
2018-07-11T22:25:33.703Z,11.87
2018-07-11T22:28:01.475Z,11.67
2018-07-11T22:30:29.225Z,13.13
2018-07-11T22:32:56.573Z,11.03
2018-07-11T22:35:24.132Z,15.30
2018-07-11T22:37:51.452Z,10.90
2018-07-11T22:40:18.784Z,13.57
2018-07-11T22:42:46.163Z,10.80
2018-07-11T22:45:13.470Z,9.40
2018-07-11T22:47:41.041Z,10.60
2018-07-11T22:50:08.452Z,14.53
2018-07-11T22:52:35.798Z,16.73
2018-07-11T22:55:03.105Z,11.43
2018-07-11T22:57:30.436Z,9.43
2018-07-11T22:59:58.004Z,10.33
2018-07-11T23:02:25.607Z,10.53
2018-07-11T23:04:53.033Z,9.73
2018-07-11T23:07:20.373Z,10.70
2018-07-11T23:09:47.944Z,9.80
2018-07-11T23:12:15.522Z,12.60
2018-07-11T23:14:42.856Z,12.20
2018-07-11T23:17:10.428Z,13.07
2018-07-11T23:19:37.784Z,10.70
2018-07-11T23:22:05.105Z,11.17
2018-07-11T23:24:32.416Z,10.00
2018-07-11T23:26:59.757Z,11.70
2018-07-11T23:29:27.072Z,10.20
2018-07-11T23:31:54.424Z,10.77
2018-07-11T23:34:22.134Z,11.53
2018-07-11T23:36:49.508Z,10.60
2018-07-11T23:39:16.830Z,14.30
2018-07-11T23:41:44.157Z,12.30
2018-07-11T23:44:11.497Z,10.83
2018-07-11T23:46:38.816Z,11.77
2018-07-11T23:49:06.156Z,11.20
2018-07-11T23:51:33.501Z,12.37
2018-07-11T23:54:00.835Z,11.77
2018-07-11T23:56:28.525Z,14.10
2018-07-11T23:58:55.835Z,12.13
